createdAt,value
2023-02-18T00:02:41.943Z,83152.34
2023-02-18T00:05:44.717Z,83142.09
2023-02-18T00:08:47.772Z,83142.03
2023-02-18T00:11:50.658Z,83127.00
2023-02-18T00:14:52.982Z,83124.59
2023-02-18T00:17:55.556Z,83116.69
2023-02-18T00:20:58.301Z,83112.69
2023-02-18T00:24:02.136Z,83100.81
2023-02-18T00:27:04.544Z,83096.09
2023-02-18T00:30:08.085Z,83108.72
2023-02-18T00:33:10.541Z,83092.09
2023-02-18T00:36:16.100Z,83092.09
2023-02-18T00:39:18.595Z,83086.56
2023-02-18T00:42:21.560Z,83087.31
2023-02-18T00:45:23.939Z,83083.41
2023-02-18T00:48:26.666Z,83084.94
2023-02-18T00:51:29.110Z,83089.72
2023-02-18T00:54:32.491Z,83081.78
2023-02-18T00:57:34.864Z,83083.38
2023-02-18T01:00:38.421Z,83081.78
2023-02-18T01:03:41.720Z,83074.63
2023-02-18T01:06:44.391Z,83070.72
2023-02-18T01:09:46.791Z,83069.06
2023-02-18T01:12:49.544Z,83064.41
2023-02-18T01:15:52.062Z,83061.91
2023-02-18T01:18:54.894Z,83056.41
2023-02-18T01:21:57.332Z,83046.88
2023-02-18T01:25:00.030Z,83051.63
2023-02-18T01:28:02.426Z,83042.09
2023-02-18T01:31:07.886Z,83040.50
2023-02-18T01:34:10.524Z,83037.28
2023-02-18T01:37:14.065Z,83030.16
2023-02-18T01:40:22.113Z,83027.84
2023-02-18T01:43:25.102Z,83016.72
2023-02-18T01:46:27.491Z,83018.31
2023-02-18T01:49:36.354Z,83024.59
2023-02-18T01:52:38.893Z,83019.78
2023-02-18T01:55:43.250Z,83015.12
2023-02-18T01:58:45.920Z,83015.09
2023-02-18T02:01:48.793Z,83014.28
2023-02-18T02:04:52.126Z,83009.50
2023-02-18T02:07:55.230Z,83020.63
2023-02-18T02:11:15.943Z,83003.16
2023-02-18T02:14:40.325Z,82993.72
2023-02-18T02:18:01.371Z,82991.31
2023-02-18T02:21:16.152Z,82984.94
2023-02-18T02:24:49.890Z,82992.84
2023-02-18T02:28:01.172Z,82990.47
2023-02-18T02:31:12.894Z,82987.28
2023-02-18T02:34:28.986Z,82988.09
2023-02-18T02:37:36.318Z,82986.50
2023-02-18T02:40:52.505Z,82997.59
2023-02-18T02:44:07.083Z,82988.13
2023-02-18T02:47:19.915Z,82982.63
2023-02-18T02:50:48.917Z,82973.84
2023-02-18T02:53:51.377Z,82996.84
2023-02-18T02:57:28.380Z,82986.50
2023-02-18T03:00:51.234Z,82991.25
2023-02-18T03:03:59.695Z,82996.78
2023-02-18T03:07:30.528Z,82996.03
2023-02-18T03:10:36.051Z,82991.25
2023-02-18T03:14:11.810Z,82999.19
2023-02-18T03:17:35.189Z,83003.19
2023-02-18T03:20:55.166Z,83007.09
2023-02-18T03:24:13.589Z,83004.75
2023-02-18T03:27:24.395Z,83011.03
2023-02-18T03:30:41.769Z,83006.25
2023-02-18T03:33:54.684Z,83005.50
2023-02-18T03:36:59.890Z,83018.16
2023-02-18T03:40:03.034Z,83008.69
2023-02-18T03:43:05.829Z,83011.84
2023-02-18T03:46:08.719Z,83018.19
2023-02-18T03:49:13.573Z,83026.22
2023-02-18T03:52:16.004Z,83027.75
2023-02-18T03:55:19.025Z,83035.66
2023-02-18T03:58:21.623Z,83027.78
2023-02-18T04:01:24.375Z,83034.91
2023-02-18T04:04:27.264Z,83049.97
2023-02-18T04:07:29.861Z,83034.91
2023-02-18T04:10:32.633Z,83035.66
2023-02-18T04:13:35.018Z,83042.03
2023-02-18T04:16:37.756Z,83042.03
2023-02-18T04:19:40.182Z,83031.75
2023-02-18T04:22:42.872Z,83038.91
2023-02-18T04:25:45.193Z,83027.81
2023-02-18T04:28:47.856Z,83038.84
2023-02-18T04:31:50.358Z,83040.47
2023-02-18T04:34:53.195Z,83045.16
2023-02-18T04:37:55.573Z,83040.44
2023-02-18T04:40:58.241Z,83047.59
2023-02-18T04:44:00.734Z,83054.84
2023-02-18T04:47:05.194Z,83067.53
2023-02-18T04:50:08.231Z,83059.47
2023-02-18T04:53:11.923Z,83078.47
2023-02-18T04:56:14.450Z,83067.44
2023-02-18T04:59:17.604Z,83076.09
2023-02-18T05:02:20.129Z,83083.19
2023-02-18T05:05:23.039Z,83095.09
2023-02-18T05:08:26.098Z,83104.66
2023-02-18T05:11:28.783Z,83116.63
2023-02-18T05:14:31.249Z,83130.06
2023-02-18T05:17:34.296Z,83139.59
2023-02-18T05:20:36.792Z,83149.91
2023-02-18T05:23:39.532Z,83153.09
2023-02-18T05:26:41.933Z,83153.12
2023-02-18T05:29:44.870Z,83161.00
2023-02-18T05:32:47.253Z,83165.75
2023-02-18T05:35:50.103Z,83176.88
2023-02-18T05:38:52.507Z,83181.59
2023-02-18T05:41:55.197Z,83181.59
2023-02-18T05:44:57.695Z,83186.37
2023-02-18T05:48:00.346Z,83192.69
2023-02-18T05:51:02.734Z,83192.69
2023-02-18T05:54:05.829Z,83190.34
2023-02-18T05:57:08.231Z,83192.69
2023-02-18T06:00:11.842Z,83192.63
2023-02-18T06:03:14.435Z,83200.53
2023-02-18T06:06:16.845Z,83184.75
2023-02-18T06:09:19.503Z,83208.47
2023-02-18T06:12:21.918Z,83203.78
2023-02-18T06:15:24.613Z,83213.25
2023-02-18T06:18:27.047Z,83218.75
2023-02-18T06:21:29.774Z,83221.97
2023-02-18T06:24:32.266Z,83232.22
2023-02-18T06:27:35.082Z,83233.78
2023-02-18T06:30:37.560Z,83228.28
2023-02-18T06:33:40.260Z,83238.59
2023-02-18T06:36:42.823Z,83233.84
2023-02-18T06:39:45.501Z,83235.38
2023-02-18T06:42:47.827Z,83233.84
2023-02-18T06:45:50.502Z,83242.53
2023-02-18T06:48:52.912Z,83230.66
2023-02-18T06:51:55.542Z,83224.31
2023-02-18T06:54:57.877Z,83224.28
2023-02-18T06:58:00.761Z,83224.34
2023-02-18T07:01:04.446Z,83225.91
2023-02-18T07:04:07.388Z,83235.44
2023-02-18T07:07:09.825Z,83241.69
2023-02-18T07:10:12.848Z,83246.47
2023-02-18T07:13:15.506Z,83249.66
2023-02-18T07:16:18.255Z,83246.53
2023-02-18T07:19:20.686Z,83249.72
2023-02-18T07:22:23.401Z,83255.97
2023-02-18T07:25:26.378Z,83244.94
2023-02-18T07:28:29.049Z,83254.38
2023-02-18T07:31:31.583Z,83248.00
2023-02-18T07:34:34.414Z,83241.66
2023-02-18T07:37:36.782Z,83230.53
2023-02-18T07:40:39.548Z,83222.69
2023-02-18T07:43:41.987Z,83211.50
2023-02-18T07:46:46.679Z,83201.97
2023-02-18T07:49:49.965Z,83190.88
2023-02-18T07:52:52.596Z,83182.94
2023-02-18T07:55:55.100Z,83174.13
2023-02-18T07:58:57.995Z,83160.69
2023-02-18T08:02:00.607Z,83154.38
2023-02-18T08:05:05.889Z,83159.16
2023-02-18T08:08:10.277Z,83163.87
2023-02-18T08:11:18.949Z,83157.53
2023-02-18T08:14:21.816Z,83149.59
2023-02-18T08:17:24.520Z,83136.81
2023-02-18T08:20:29.080Z,83132.03
2023-02-18T08:23:33.297Z,83116.91
2023-02-18T08:26:35.889Z,83116.06
2023-02-18T08:29:38.760Z,83108.19
2023-02-18T08:33:00.157Z,83108.16
2023-02-18T08:36:08.136Z,83108.94
2023-02-18T08:39:11.283Z,83093.88
2023-02-18T08:42:13.972Z,83084.25
2023-02-18T08:45:16.451Z,83081.84
2023-02-18T08:48:20.658Z,83089.09
2023-02-18T08:51:23.561Z,83077.09
2023-02-18T08:54:26.277Z,83034.97
2023-02-18T08:57:28.739Z,83006.31
2023-02-18T09:00:31.480Z,83015.03
2023-02-18T09:03:34.478Z,83036.53
2023-02-18T09:06:38.980Z,83026.91
2023-02-18T09:09:42.062Z,83041.38
2023-02-18T09:12:44.844Z,83042.87
2023-02-18T09:16:00.272Z,83050.84
2023-02-18T09:19:03.282Z,83066.00
2023-02-18T09:22:05.797Z,83056.44
2023-02-18T09:25:08.627Z,83033.31
2023-02-18T09:28:10.979Z,83020.66
2023-02-18T09:31:16.603Z,83019.13
2023-02-18T09:34:19.106Z,83023.97
2023-02-18T09:37:21.758Z,83025.56
2023-02-18T09:40:33.050Z,83038.22
2023-02-18T09:43:45.744Z,83041.44
2023-02-18T09:46:48.360Z,83048.56
2023-02-18T09:49:58.463Z,83040.63
2023-02-18T09:53:03.269Z,83035.06
2023-02-18T09:56:07.682Z,83031.97
2023-02-18T09:59:16.445Z,83023.88
2023-02-18T10:02:21.000Z,83011.16
2023-02-18T10:05:26.602Z,82997.63
2023-02-18T10:08:34.669Z,82985.66
2023-02-18T10:11:42.993Z,82988.84
2023-02-18T10:14:51.157Z,82995.19
2023-02-18T10:17:56.069Z,82995.22
2023-02-18T10:21:13.707Z,82992.00
2023-02-18T10:24:37.797Z,82990.59
2023-02-18T10:27:41.148Z,82994.44
2023-02-18T10:30:52.040Z,83011.19
2023-02-18T10:34:03.622Z,83019.06
2023-02-18T10:37:36.461Z,83022.28
2023-02-18T10:41:20.391Z,83008.03
2023-02-18T10:44:41.440Z,82984.97
2023-02-18T10:48:31.762Z,82944.41
2023-02-18T10:51:37.565Z,82933.22
2023-02-18T10:54:52.240Z,82911.03
2023-02-18T10:57:55.895Z,82917.34
2023-02-18T11:01:00.543Z,82915.78
2023-02-18T11:04:20.195Z,82929.31
2023-02-18T11:07:29.645Z,82923.72
2023-02-18T11:10:35.829Z,82950.84
2023-02-18T11:13:40.843Z,82936.53
2023-02-18T11:16:46.695Z,82939.72
2023-02-18T11:19:57.827Z,82944.59
2023-02-18T11:23:18.516Z,82950.09
2023-02-18T11:26:41.738Z,82936.56
2023-02-18T11:29:44.453Z,82938.22
2023-02-18T11:32:50.124Z,82922.38
2023-02-18T11:35:56.421Z,82928.81
2023-02-18T11:39:04.363Z,82890.53
2023-02-18T11:42:07.795Z,82880.97
2023-02-18T11:45:27.206Z,82877.09
2023-02-18T11:48:30.319Z,82890.56
2023-02-18T11:51:38.951Z,82885.03
2023-02-18T11:54:41.680Z,82875.50
2023-02-18T11:57:51.398Z,82849.31
2023-02-18T12:00:57.105Z,82838.19
2023-02-18T12:04:21.759Z,82823.88
2023-02-18T12:07:31.888Z,82764.97
2023-02-18T12:10:49.341Z,82738.69
2023-02-18T12:13:55.741Z,82746.66
2023-02-18T12:17:23.457Z,82756.31
2023-02-18T12:20:41.291Z,82782.59
2023-02-18T12:24:27.345Z,82768.34
2023-02-18T12:27:41.286Z,82727.72
2023-02-18T12:31:00.857Z,82701.38
2023-02-18T12:34:27.675Z,82682.31
2023-02-18T12:37:58.540Z,82686.31
2023-02-18T12:41:27.111Z,82682.38
2023-02-18T12:44:45.832Z,82703.94
2023-02-18T12:47:48.150Z,82719.84
2023-02-18T12:51:18.443Z,82703.12
2023-02-18T12:54:44.463Z,82694.34
2023-02-18T12:57:59.422Z,82671.25
2023-02-18T13:01:33.852Z,82664.88
2023-02-18T13:04:39.424Z,82668.19
2023-02-18T13:07:50.783Z,82674.56
2023-02-18T13:11:02.782Z,82674.53
2023-02-18T13:14:05.061Z,82667.41
2023-02-18T13:17:11.034Z,82656.44
2023-02-18T13:20:22.556Z,82653.09
2023-02-18T13:23:31.265Z,82645.91
2023-02-18T13:26:35.037Z,82636.38
2023-02-18T13:29:48.854Z,82635.59
2023-02-18T13:33:26.142Z,82626.97
2023-02-18T13:36:54.115Z,82630.00
2023-02-18T13:39:59.053Z,82647.59
2023-02-18T13:43:28.738Z,82644.50
2023-02-18T13:46:31.280Z,82646.03
2023-02-18T13:49:38.173Z,82643.75
2023-02-18T13:52:40.974Z,82641.38
2023-02-18T13:56:02.082Z,82635.00
2023-02-18T13:59:30.662Z,82643.81
2023-02-18T14:02:36.516Z,82652.72
2023-02-18T14:05:41.742Z,82654.25
2023-02-18T14:08:45.777Z,82641.59
2023-02-18T14:11:55.018Z,82623.25
2023-02-18T14:14:58.742Z,82628.94
2023-02-18T14:18:13.153Z,82650.41
2023-02-18T14:21:15.492Z,82651.16
2023-02-18T14:24:47.076Z,82652.87
2023-02-18T14:27:53.875Z,82640.13
2023-02-18T14:30:56.688Z,82624.25
2023-02-18T14:34:11.694Z,82624.28
2023-02-18T14:37:20.380Z,82614.72
2023-02-18T14:40:37.291Z,82611.44
2023-02-18T14:43:40.468Z,82618.66
2023-02-18T14:46:54.630Z,82611.53
2023-02-18T14:50:01.134Z,82602.13
2023-02-18T14:53:08.011Z,82608.41
2023-02-18T14:56:14.326Z,82619.59
2023-02-18T14:59:17.475Z,82626.00
2023-02-18T15:02:27.565Z,82629.25
2023-02-18T15:05:32.395Z,82635.59
2023-02-18T15:08:40.364Z,82638.00
2023-02-18T15:11:47.967Z,82639.63
2023-02-18T15:14:53.944Z,82635.63
2023-02-18T15:17:56.438Z,82678.66
2023-02-18T15:21:02.137Z,82710.62
2023-02-18T15:24:21.175Z,82720.13
2023-02-18T15:27:28.083Z,82736.06
2023-02-18T15:30:31.527Z,82732.88
2023-02-18T15:33:34.214Z,82755.19
2023-02-18T15:36:36.794Z,82759.94
2023-02-18T15:39:40.582Z,82775.84
2023-02-18T15:42:43.110Z,82798.28
2023-02-18T15:45:49.319Z,82830.13
2023-02-18T15:48:53.515Z,82833.28
2023-02-18T15:51:59.943Z,82855.56
2023-02-18T15:55:13.047Z,82871.44
2023-02-18T15:58:26.630Z,82874.63
2023-02-18T16:01:30.421Z,82896.91
2023-02-18T16:04:37.444Z,82909.56
2023-02-18T16:07:53.826Z,82922.34
2023-02-18T16:11:03.265Z,82940.59
2023-02-18T16:14:06.222Z,82947.72
2023-02-18T16:17:11.634Z,82960.44
2023-02-18T16:20:27.362Z,82960.50
2023-02-18T16:24:00.675Z,82961.28
2023-02-18T16:27:14.843Z,82963.72
2023-02-18T16:30:26.190Z,82965.28
2023-02-18T16:33:28.538Z,82973.22
2023-02-18T16:36:31.510Z,82981.19
2023-02-18T16:39:35.338Z,82981.25
2023-02-18T16:42:38.001Z,82982.84
2023-02-18T16:45:43.396Z,82990.78
2023-02-18T16:48:50.097Z,82990.78
2023-02-18T16:51:52.554Z,82997.13
2023-02-18T16:54:55.610Z,83005.91
2023-02-18T16:57:58.250Z,83013.03
2023-02-18T17:01:01.139Z,83016.22
2023-02-18T17:04:05.591Z,83018.56
2023-02-18T17:07:11.636Z,83032.09
2023-02-18T17:10:14.701Z,83026.53
2023-02-18T17:13:20.402Z,83033.59
2023-02-18T17:16:22.965Z,83038.41
2023-02-18T17:19:25.703Z,83036.91
2023-02-18T17:22:28.154Z,83041.59
2023-02-18T17:25:34.714Z,83048.75
2023-02-18T17:28:37.205Z,83051.88
2023-02-18T17:31:47.308Z,83054.28
2023-02-18T17:34:49.909Z,83053.47
2023-02-18T17:37:53.226Z,83055.84
2023-02-18T17:40:55.653Z,83058.28
2023-02-18T17:43:58.525Z,83067.84
2023-02-18T17:47:00.941Z,83064.63
2023-02-18T17:50:03.647Z,83065.41
2023-02-18T17:53:06.212Z,83067.06
2023-02-18T17:56:13.053Z,83074.97
2023-02-18T17:59:15.719Z,83078.22
2023-02-18T18:02:27.990Z,83079.78
2023-02-18T18:05:36.097Z,83081.37
2023-02-18T18:08:38.561Z,83090.88
2023-02-18T18:11:41.422Z,83082.19
2023-02-18T18:14:43.923Z,83084.56
2023-02-18T18:17:46.557Z,83087.69
2023-02-18T18:20:58.824Z,83084.53
2023-02-18T18:24:02.012Z,83084.53
2023-02-18T18:27:04.449Z,83082.16
2023-02-18T18:30:07.737Z,83075.00
2023-02-18T18:33:30.572Z,83073.44
2023-02-18T18:36:33.149Z,83068.66
2023-02-18T18:39:35.395Z,83070.22
2023-02-18T18:42:38.339Z,83063.16
2023-02-18T18:45:40.773Z,83063.09
2023-02-18T18:48:43.518Z,83060.69
2023-02-18T18:51:46.125Z,83057.53
2023-02-18T18:54:48.797Z,83049.63
2023-02-18T18:57:51.957Z,83057.56
2023-02-18T19:00:58.344Z,83051.16
2023-02-18T19:04:00.787Z,83044.81
2023-02-18T19:07:03.452Z,83037.72
2023-02-18T19:10:06.041Z,83043.16
2023-02-18T19:13:14.943Z,83035.28
2023-02-18T19:16:20.214Z,83033.63
2023-02-18T19:19:24.692Z,83022.47
2023-02-18T19:22:27.590Z,83006.63
2023-02-18T19:25:32.391Z,82994.72
2023-02-18T19:28:35.527Z,82993.84
2023-02-18T19:31:38.406Z,82989.00
2023-02-18T19:34:40.963Z,82992.19
2023-02-18T19:37:44.698Z,82995.34
2023-02-18T19:40:47.724Z,82993.81
2023-02-18T19:43:50.489Z,83004.94
2023-02-18T19:46:55.273Z,83008.81
2023-02-18T19:49:59.894Z,83009.59
2023-02-18T19:53:02.389Z,83011.19
2023-02-18T19:56:08.574Z,83004.09
2023-02-18T19:59:11.016Z,83006.47
2023-02-18T20:02:16.370Z,83000.09
2023-02-18T20:05:19.551Z,82993.00
2023-02-18T20:08:22.373Z,82998.53
2023-02-18T20:11:25.495Z,82998.56
2023-02-18T20:14:29.439Z,82997.03
2023-02-18T20:17:32.344Z,83001.69
2023-02-18T20:20:34.760Z,83003.25
2023-02-18T20:23:37.688Z,83006.44
2023-02-18T20:26:40.094Z,83004.78
2023-02-18T20:29:42.840Z,82996.97
2023-02-18T20:32:45.170Z,83008.00
2023-02-18T20:35:56.065Z,83015.97
2023-02-18T20:39:10.748Z,83023.84
2023-02-18T20:42:18.500Z,83023.88
2023-02-18T20:45:21.063Z,83022.34
2023-02-18T20:48:24.213Z,83037.38
2023-02-18T20:51:26.663Z,83042.09
2023-02-18T20:54:29.712Z,83042.91
2023-02-18T20:57:32.025Z,83035.00
2023-02-18T21:00:34.967Z,83036.63
2023-02-18T21:03:38.881Z,83039.78
2023-02-18T21:06:42.613Z,83037.34
2023-02-18T21:09:45.034Z,83042.97
2023-02-18T21:12:47.715Z,83041.28
2023-02-18T21:15:50.505Z,83051.59
2023-02-18T21:18:54.294Z,83043.72
2023-02-18T21:21:57.117Z,83050.81
2023-02-18T21:25:00.470Z,83063.47
2023-02-18T21:28:03.192Z,83060.34
2023-02-18T21:31:18.473Z,83065.87
2023-02-18T21:34:22.721Z,83071.47
2023-02-18T21:37:25.619Z,83074.69
2023-02-18T21:40:28.265Z,83080.94
2023-02-18T21:43:30.905Z,83074.56
2023-02-18T21:46:34.925Z,83066.63
2023-02-18T21:49:37.685Z,83041.25
2023-02-18T21:52:41.463Z,83044.47
2023-02-18T21:55:47.801Z,83049.13
2023-02-18T21:58:57.684Z,83025.31
2023-02-18T22:02:02.554Z,83017.38
2023-02-18T22:05:08.533Z,83015.75
2023-02-18T22:08:10.980Z,83017.38
2023-02-18T22:11:13.718Z,83015.78
2023-02-18T22:14:17.203Z,83015.81
2023-02-18T22:17:21.630Z,83020.59
2023-02-18T22:20:24.090Z,83022.88
2023-02-18T22:23:26.788Z,83018.94
2023-02-18T22:26:29.158Z,83034.75
2023-02-18T22:29:32.898Z,83034.75
2023-02-18T22:32:35.608Z,83037.16
2023-02-18T22:35:38.543Z,83049.84
2023-02-18T22:38:40.946Z,83053.00
2023-02-18T22:41:43.918Z,83058.59
2023-02-18T22:44:46.350Z,83061.75
2023-02-18T22:47:48.993Z,83058.53
2023-02-18T22:50:51.328Z,83053.78
2023-02-18T22:53:56.716Z,83056.97
2023-02-18T22:56:59.080Z,83064.13
2023-02-18T23:00:01.717Z,83067.28
2023-02-18T23:03:04.301Z,83071.25
2023-02-18T23:06:07.110Z,83072.81
2023-02-18T23:09:12.828Z,83070.44
2023-02-18T23:12:15.459Z,83068.88
2023-02-18T23:15:17.915Z,83074.34
2023-02-18T23:18:20.994Z,83069.62
2023-02-18T23:21:23.517Z,83072.81
2023-02-18T23:24:26.558Z,83067.34
2023-02-18T23:27:29.569Z,83075.16
2023-02-18T23:30:32.262Z,83084.72
2023-02-18T23:33:34.741Z,83080.81
2023-02-18T23:36:37.416Z,83086.31
2023-02-18T23:39:40.093Z,83093.47
2023-02-18T23:42:42.769Z,83105.38
2023-02-18T23:45:45.103Z,83106.16
2023-02-18T23:48:48.043Z,83116.50
2023-02-18T23:51:52.614Z,83112.56
2023-02-18T23:54:55.286Z,83118.84
2023-02-18T23:57:57.763Z,83110.94
